Time;durP1;ratioP1;P1;durP2;ratioP2;P2;SDS_P1;SDS_P2;PMS_P1;PMS_P2;Temp;Humidity;BMP_temperature;BMP_pressure;BME280_temperature;BME280_humidity;BME280_pressure;Samples;Min_cycle;Max_cycle;Signal;HPM_P1;HPM_P2
2022/03/12 00:00:00;;;;;;;8.20;3.70;;;1.60;68.70;;;;;;5014227;28;20801;-84
2022/03/12 00:02:30;;;;;;;5.77;3.20;;;1.50;68.60;;;;;;5012777;28;20424;-84
2022/03/12 00:04:56;;;;;;;10.83;3.87;;;1.50;68.50;;;;;;5012603;28;20197;-84
2022/03/12 00:07:23;;;;;;;7.23;4.30;;;1.50;68.50;;;;;;5012734;28;21006;-84
2022/03/12 00:09:50;;;;;;;7.70;3.70;;;1.50;68.50;;;;;;5011980;28;20510;-83
2022/03/12 00:12:18;;;;;;;6.67;3.40;;;1.50;68.60;;;;;;5011825;28;20515;-83
2022/03/12 00:14:45;;;;;;;5.27;3.57;;;1.40;68.60;;;;;;5011904;28;20444;-83
2022/03/12 00:17:13;;;;;;;4.37;2.90;;;1.40;68.60;;;;;;5009944;28;20499;-83
2022/03/12 00:19:42;;;;;;;8.97;3.30;;;1.40;68.70;;;;;;5009792;28;20958;-83
2022/03/12 00:22:09;;;;;;;6.63;3.43;;;1.40;68.80;;;;;;5009752;28;20808;-83
2022/03/12 00:24:36;;;;;;;9.03;4.10;;;1.40;68.70;;;;;;5010730;28;20621;-83
2022/03/12 00:27:02;;;;;;;5.70;3.47;;;1.30;68.70;;;;;;5010418;28;20420;-82
2022/03/12 00:29:28;;;;;;;6.03;3.47;;;1.30;68.50;;;;;;5010623;28;20776;-83
2022/03/12 00:31:54;;;;;;;6.10;3.57;;;1.30;68.30;;;;;;5010627;28;20177;-83
2022/03/12 00:34:20;;;;;;;7.60;3.03;;;1.30;67.90;;;;;;5010192;28;20590;-83
2022/03/12 00:36:47;;;;;;;6.27;3.80;;;1.30;68.00;;;;;;5010471;28;20212;-82
2022/03/12 00:39:15;;;;;;;7.27;3.50;;;1.40;67.60;;;;;;5010243;28;20499;-83
2022/03/12 00:41:43;;;;;;;9.53;3.07;;;1.40;67.60;;;;;;5011455;28;20423;-83
2022/03/12 00:44:12;;;;;;;6.57;3.10;;;1.40;67.60;;;;;;5010125;28;20436;-81
2022/03/12 00:46:37;;;;;;;7.90;2.93;;;1.40;67.50;;;;;;5016736;28;20435;-83
2022/03/12 00:49:03;;;;;;;5.80;3.90;;;1.40;67.60;;;;;;5029744;28;20447;-83
2022/03/12 00:51:29;;;;;;;5.53;3.33;;;1.30;67.50;;;;;;5030015;28;20552;-83
2022/03/12 00:53:54;;;;;;;3.47;2.80;;;1.30;67.10;;;;;;5032130;28;20295;-83
2022/03/12 00:56:20;;;;;;;6.00;3.10;;;1.30;66.80;;;;;;5031201;28;20208;-83
2022/03/12 00:58:47;;;;;;;7.10;3.70;;;1.30;66.90;;;;;;5031403;28;20176;-83
2022/03/12 01:01:13;;;;;;;7.73;3.33;;;1.30;66.60;;;;;;5031879;28;20452;-83
2022/03/12 01:03:39;;;;;;;9.63;3.43;;;1.30;66.40;;;;;;5032090;28;20426;-81
2022/03/12 01:06:07;;;;;;;5.57;3.10;;;1.40;66.30;;;;;;5031913;28;20430;-82
2022/03/12 01:08:35;;;;;;;6.47;3.20;;;1.40;66.20;;;;;;5030288;28;20475;-83
2022/03/12 01:11:07;;;;;;;5.30;3.43;;;1.40;66.10;;;;;;5032257;28;20442;-83
2022/03/12 01:13:32;;;;;;;6.17;3.70;;;1.40;65.90;;;;;;5029840;28;20419;-82
2022/03/12 01:15:58;;;;;;;4.97;3.30;;;1.30;66.00;;;;;;5029676;28;20992;-83
2022/03/12 01:18:25;;;;;;;4.57;2.77;;;1.30;65.90;;;;;;5029216;28;20173;-84
2022/03/12 01:20:51;;;;;;;7.67;3.60;;;1.30;66.00;;;;;;5017206;28;20188;-84
2022/03/12 01:23:18;;;;;;;6.20;3.07;;;1.30;66.00;;;;;;5008498;28;20420;-84
2022/03/12 01:25:46;;;;;;;5.20;3.50;;;1.30;66.10;;;;;;5008463;28;20479;-83
2022/03/12 01:28:13;;;;;;;6.77;3.17;;;1.30;65.80;;;;;;5008606;28;20499;-83
2022/03/12 01:30:41;;;;;;;5.53;3.07;;;1.30;66.00;;;;;;5008866;28;20443;-83
2022/03/12 01:33:07;;;;;;;7.87;3.57;;;1.20;65.70;;;;;;5008872;28;20435;-83
2022/03/12 01:35:33;;;;;;;5.03;3.03;;;1.20;65.80;;;;;;5009647;28;20493;-83
2022/03/12 01:38:00;;;;;;;3.93;2.90;;;1.20;65.80;;;;;;5009506;28;20943;-83
2022/03/12 01:40:26;;;;;;;5.60;3.13;;;1.20;65.70;;;;;;5010445;28;20173;-83
2022/03/12 01:42:52;;;;;;;5.10;2.67;;;1.20;65.60;;;;;;5009004;28;20419;-83
2022/03/12 01:45:26;;;;;;;3.60;2.90;;;1.20;65.50;;;;;;5008780;28;20448;-83
2022/03/12 01:47:55;;;;;;;5.23;2.97;;;1.20;65.20;;;;;;5009257;28;20917;-85
2022/03/12 01:50:23;;;;;;;4.50;2.67;;;1.10;65.20;;;;;;5008956;28;20435;-83
2022/03/12 01:52:49;;;;;;;5.73;3.03;;;1.10;65.20;;;;;;5008827;28;20431;-81
2022/03/12 01:55:15;;;;;;;4.33;2.90;;;1.10;64.90;;;;;;5023161;28;20518;-83
2022/03/12 01:57:40;;;;;;;5.20;2.63;;;1.10;64.70;;;;;;5028634;28;20215;-83
2022/03/12 02:00:20;;;;;;;6.27;3.03;;;1.10;64.70;;;;;;5027960;28;20693;-83
2022/03/12 02:02:54;;;;;;;2.93;2.30;;;1.10;64.70;;;;;;5028957;28;20658;-83
2022/03/12 02:05:25;;;;;;;4.70;3.07;;;1.10;64.60;;;;;;5028411;28;20442;-83
2022/03/12 02:07:51;;;;;;;5.60;2.70;;;1.10;64.80;;;;;;5029779;28;20451;-82
2022/03/12 02:10:18;;;;;;;5.43;2.63;;;1.10;64.80;;;;;;5029627;28;20467;-83
2022/03/12 02:12:44;;;;;;;6.13;2.70;;;1.10;65.00;;;;;;5030161;28;20678;-82
2022/03/12 02:15:09;;;;;;;3.37;2.33;;;1.10;64.80;;;;;;5030926;28;20479;-82
2022/03/12 02:17:37;;;;;;;4.30;2.70;;;1.10;64.80;;;;;;5032622;28;20200;-82
2022/03/12 02:20:04;;;;;;;7.43;2.73;;;1.10;64.40;;;;;;5032973;28;20180;-83
2022/03/12 02:22:29;;;;;;;4.43;3.00;;;1.10;64.40;;;;;;5032716;28;20919;-83
2022/03/12 02:24:55;;;;;;;5.33;2.80;;;1.10;64.30;;;;;;5032516;28;20470;-82
2022/03/12 02:27:25;;;;;;;5.60;2.83;;;1.20;64.00;;;;;;5034277;28;20192;-82
2022/03/12 02:29:54;;;;;;;4.50;2.50;;;1.20;64.20;;;;;;5034530;28;20176;-82
2022/03/12 02:32:20;;;;;;;7.63;3.10;;;1.20;64.00;;;;;;5033048;28;20438;-81
2022/03/12 02:34:48;;;;;;;6.07;2.70;;;1.20;64.50;;;;;;5027701;28;20474;-83
2022/03/12 02:37:28;;;;;;;4.03;2.50;;;1.10;64.50;;;;;;5012272;28;20463;-82
2022/03/12 02:39:54;;;;;;;2.87;1.90;;;1.10;64.40;;;;;;5012431;28;20420;-80
2022/03/12 02:42:20;;;;;;;4.40;2.57;;;1.10;64.90;;;;;;5013662;28;20416;-82
2022/03/12 02:44:48;;;;;;;5.83;2.73;;;1.10;64.80;;;;;;5012213;28;20197;-83
2022/03/12 02:47:17;;;;;;;5.63;2.80;;;1.00;64.70;;;;;;5011360;28;20484;-85
2022/03/12 02:49:48;;;;;;;3.10;2.50;;;1.10;64.60;;;;;;5011153;28;20421;-83
2022/03/12 02:52:15;;;;;;;5.10;2.80;;;1.10;64.70;;;;;;5011100;28;20420;-83
2022/03/12 02:54:42;;;;;;;3.70;2.57;;;1.00;64.80;;;;;;5020803;28;20430;-83
2022/03/12 02:57:12;;;;;;;6.87;3.07;;;1.00;65.10;;;;;;5030780;28;20462;-82
2022/03/12 02:59:45;;;;;;;2.87;2.63;;;1.00;65.00;;;;;;5030630;28;20793;-83
2022/03/12 03:02:12;;;;;;;5.10;3.60;;;1.00;65.00;;;;;;5030687;28;20697;-84
2022/03/12 03:04:40;;;;;;;7.03;2.90;;;1.00;64.90;;;;;;5031912;28;20845;-83
2022/03/12 03:07:10;;;;;;;6.00;2.70;;;1.00;65.10;;;;;;5032602;28;20779;-83
2022/03/12 03:09:37;;;;;;;7.07;3.10;;;1.00;65.10;;;;;;5030640;28;20469;-83
2022/03/12 03:12:07;;;;;;;3.20;2.67;;;1.00;65.40;;;;;;5031878;28;20473;-83
2022/03/12 03:14:32;;;;;;;6.40;3.33;;;1.00;65.30;;;;;;5031969;28;20427;-84
2022/03/12 03:17:00;;;;;;;10.40;3.13;;;1.00;65.20;;;;;;5032029;28;20458;-83
2022/03/12 03:19:27;;;;;;;9.50;2.63;;;0.90;65.30;;;;;;5030346;28;20176;-83
2022/03/12 03:21:53;;;;;;;4.93;3.30;;;0.90;65.30;;;;;;5032321;28;20426;-83
2022/03/12 03:24:20;;;;;;;6.77;2.97;;;0.90;65.50;;;;;;5035067;28;20890;-83
2022/03/12 03:26:58;;;;;;;7.43;3.03;;;0.90;65.50;;;;;;5051708;28;20573;-83
2022/03/12 03:29:26;;;;;;;3.10;2.30;;;0.90;65.50;;;;;;5051541;28;20442;-83
2022/03/12 03:31:52;;;;;;;4.73;2.90;;;0.90;65.30;;;;;;5033645;28;20418;-83
2022/03/12 03:34:18;;;;;;;5.80;2.60;;;0.90;65.60;;;;;;5030562;28;20441;-84
2022/03/12 03:36:45;;;;;;;6.20;3.50;;;0.90;65.50;;;;;;5013172;28;20974;-83
2022/03/12 03:39:10;;;;;;;5.97;2.90;;;0.90;65.60;;;;;;5008495;28;20515;-84
2022/03/12 03:41:36;;;;;;;3.93;2.30;;;0.90;65.50;;;;;;4996329;28;20533;-83
2022/03/12 03:44:05;;;;;;;10.40;3.67;;;0.90;65.70;;;;;;5013504;28;20750;-83
2022/03/12 03:46:31;;;;;;;5.60;2.87;;;0.90;65.80;;;;;;5013301;28;20208;-83
2022/03/12 03:48:56;;;;;;;6.60;3.03;;;0.80;66.10;;;;;;5012949;28;20420;-83
2022/03/12 03:51:22;;;;;;;6.20;3.20;;;0.80;66.10;;;;;;5013518;28;20427;-83
2022/03/12 03:53:49;;;;;;;5.07;3.30;;;0.80;65.90;;;;;;5013837;28;20184;-83
2022/03/12 03:56:15;;;;;;;4.70;2.67;;;0.80;65.80;;;;;;5014303;28;20200;-84
2022/03/12 03:58:40;;;;;;;4.60;2.53;;;0.80;66.00;;;;;;5013778;28;20416;-83
2022/03/12 04:01:14;;;;;;;3.90;2.80;;;0.80;66.20;;;;;;5013697;28;20419;-83
2022/03/12 04:03:44;;;;;;;4.23;2.40;;;0.80;66.10;;;;;;5014219;28;20660;-82
2022/03/12 04:06:10;;;;;;;7.40;2.97;;;0.80;66.30;;;;;;5014206;28;20419;-83
2022/03/12 04:08:36;;;;;;;5.00;3.20;;;0.80;66.40;;;;;;5014471;28;20547;-83
2022/03/12 04:11:04;;;;;;;4.40;2.37;;;0.80;66.50;;;;;;5014346;28;20211;-83
2022/03/12 04:13:31;;;;;;;4.90;2.73;;;0.80;66.50;;;;;;5014705;28;20418;-82
2022/03/12 04:15:59;;;;;;;6.33;3.20;;;0.80;66.30;;;;;;5014115;28;20469;-86
2022/03/12 04:18:25;;;;;;;7.30;2.57;;;0.70;66.60;;;;;;5013542;28;20487;-81
2022/03/12 04:20:51;;;;;;;6.33;2.90;;;0.70;66.60;;;;;;5013212;28;20936;-83
2022/03/12 04:23:21;;;;;;;5.00;2.87;;;0.70;67.10;;;;;;5013277;28;20421;-85
2022/03/12 04:25:48;;;;;;;5.27;2.70;;;0.60;67.30;;;;;;5013872;28;20467;-83
2022/03/12 04:28:13;;;;;;;4.33;2.43;;;0.60;67.30;;;;;;5014380;28;20561;-85
2022/03/12 04:30:39;;;;;;;7.23;2.57;;;0.60;67.30;;;;;;5014357;28;20415;-83
2022/03/12 04:33:07;;;;;;;4.23;2.53;;;0.50;67.60;;;;;;5013229;28;20230;-85
2022/03/12 04:35:33;;;;;;;5.83;2.50;;;0.50;67.50;;;;;;5031420;28;20477;-85
2022/03/12 04:37:59;;;;;;;13.30;3.53;;;0.40;67.60;;;;;;5014408;28;20459;-85
2022/03/12 04:40:26;;;;;;;6.20;2.60;;;0.40;67.70;;;;;;5031593;28;20169;-85
2022/03/12 04:42:53;;;;;;;3.27;2.40;;;0.40;67.80;;;;;;5013861;28;20645;-83
2022/03/12 04:45:26;;;;;;;5.23;2.60;;;0.30;67.80;;;;;;5014031;28;20494;-84
2022/03/12 04:47:54;;;;;;;5.27;3.00;;;0.30;67.70;;;;;;5016625;28;20980;-83
2022/03/12 04:50:21;;;;;;;8.57;2.70;;;0.30;67.80;;;;;;5032728;28;20484;-85
2022/03/12 04:52:53;;;;;;;5.70;3.17;;;0.30;67.80;;;;;;5032796;28;20468;-85
2022/03/12 04:55:20;;;;;;;4.73;2.83;;;0.30;67.90;;;;;;5053739;28;20440;-85
2022/03/12 04:57:47;;;;;;;8.77;3.10;;;0.30;68.00;;;;;;5036886;28;20454;-85
2022/03/12 05:00:38;;;;;;;7.00;3.30;;;0.30;68.00;;;;;;5035699;28;20760;-85
2022/03/12 05:03:08;;;;;;;5.47;3.40;;;0.30;68.00;;;;;;5035334;28;21010;-84
2022/03/12 05:05:34;;;;;;;4.60;2.80;;;0.30;67.90;;;;;;5034691;28;20465;-84
2022/03/12 05:08:00;;;;;;;4.87;2.70;;;0.30;67.80;;;;;;5032044;28;20927;-84
2022/03/12 05:10:29;;;;;;;4.90;2.87;;;0.30;68.00;;;;;;5032418;28;20415;-84
2022/03/12 05:13:00;;;;;;;8.73;2.90;;;0.20;68.00;;;;;;5032293;28;20814;-85
2022/03/12 05:15:36;;;;;;;7.80;3.60;;;0.20;67.90;;;;;;5032031;28;20469;-85
2022/03/12 05:18:05;;;;;;;8.23;3.10;;;0.20;68.00;;;;;;5031776;28;20469;-85
2022/03/12 05:20:30;;;;;;;4.40;3.20;;;0.20;67.90;;;;;;5031482;28;20642;-85
2022/03/12 05:22:56;;;;;;;4.60;2.97;;;0.20;68.20;;;;;;5031480;28;20639;-85
2022/03/12 05:25:21;;;;;;;5.40;3.03;;;0.20;68.10;;;;;;5030995;28;20595;-85
2022/03/12 05:27:49;;;;;;;4.33;2.77;;;0.10;68.00;;;;;;5031469;28;20240;-84
2022/03/12 05:30:14;;;;;;;10.10;3.50;;;0.10;68.10;;;;;;5031164;28;20650;-85
2022/03/12 05:32:40;;;;;;;5.77;3.00;;;0.20;67.90;;;;;;5048946;28;20418;-85
2022/03/12 05:35:07;;;;;;;6.23;4.00;;;0.20;67.50;;;;;;5021815;28;20223;-85
2022/03/12 05:37:32;;;;;;;3.83;3.00;;;0.20;67.70;;;;;;5011412;28;20460;-84
2022/03/12 05:39:58;;;;;;;4.80;3.17;;;0.20;67.50;;;;;;5011175;28;20428;-85
2022/03/12 05:42:25;;;;;;;6.60;3.20;;;0.20;67.30;;;;;;5029364;28;20177;-85
2022/03/12 05:44:52;;;;;;;3.73;3.20;;;0.30;66.90;;;;;;5011291;28;20594;-84
2022/03/12 05:47:20;;;;;;;6.33;3.50;;;0.30;67.10;;;;;;5011620;28;20427;-85
2022/03/12 05:49:46;;;;;;;6.07;3.37;;;0.30;67.10;;;;;;5030650;28;20441;-84
2022/03/12 05:52:14;;;;;;;6.03;3.20;;;0.40;67.00;;;;;;5015469;28;20434;-84
2022/03/12 05:54:39;;;;;;;6.60;2.73;;;0.40;67.10;;;;;;5015028;28;20271;-85
2022/03/12 05:57:05;;;;;;;5.20;2.70;;;0.40;67.10;;;;;;5015694;28;20466;-84
2022/03/12 05:59:31;;;;;;;5.83;2.83;;;0.40;67.00;;;;;;5015658;28;20181;-84
2022/03/12 06:01:57;;;;;;;5.67;2.70;;;0.40;67.00;;;;;;5016014;28;20180;-84
2022/03/12 06:04:29;;;;;;;4.97;2.83;;;0.40;67.30;;;;;;5015245;28;20435;-85
2022/03/12 06:06:55;;;;;;;7.27;2.70;;;0.40;67.30;;;;;;5015300;28;20215;-85
2022/03/12 06:09:21;;;;;;;4.70;3.00;;;0.40;67.70;;;;;;5015175;28;20450;-85
2022/03/12 06:11:50;;;;;;;5.23;2.70;;;0.40;67.60;;;;;;5014712;28;20934;-85
2022/03/12 06:14:16;;;;;;;8.27;3.63;;;0.50;67.20;;;;;;5015012;28;20965;-85
2022/03/12 06:16:47;;;;;;;4.97;3.17;;;0.50;66.90;;;;;;5014675;28;20462;-84
2022/03/12 06:19:15;;;;;;;6.73;3.00;;;0.50;67.10;;;;;;5032775;28;20988;-85
2022/03/12 06:21:40;;;;;;;5.23;2.77;;;0.60;67.00;;;;;;5032723;28;20425;-84
2022/03/12 06:24:06;;;;;;;5.90;3.17;;;0.70;66.50;;;;;;5014345;28;20517;-84
2022/03/12 06:26:36;;;;;;;6.97;3.83;;;0.70;66.20;;;;;;5032567;28;20183;-85
2022/03/12 06:29:03;;;;;;;7.20;3.30;;;0.80;66.00;;;;;;5014845;28;20187;-85
2022/03/12 06:31:31;;;;;;;4.67;2.40;;;0.90;65.80;;;;;;5014109;28;20450;-84
2022/03/12 06:33:57;;;;;;;5.40;2.97;;;1.00;66.10;;;;;;5014171;28;20481;-85
2022/03/12 06:36:24;;;;;;;4.33;2.40;;;1.10;65.70;;;;;;5014635;28;20483;-85
2022/03/12 06:38:49;;;;;;;4.60;2.67;;;1.10;65.40;;;;;;5014690;28;20422;-84
2022/03/12 06:41:17;;;;;;;5.60;2.60;;;1.30;65.00;;;;;;5014919;28;20567;-85
2022/03/12 06:43:43;;;;;;;5.27;3.10;;;1.40;64.50;;;;;;5014393;28;20178;-85
2022/03/12 06:46:12;;;;;;;8.07;3.60;;;1.50;63.90;;;;;;5014173;28;20438;-85
2022/03/12 06:48:39;;;;;;;9.93;2.90;;;1.70;63.60;;;;;;5020788;28;20218;-85
2022/03/12 06:51:05;;;;;;;9.20;3.40;;;1.80;63.10;;;;;;5052652;28;20497;-84
2022/03/12 06:53:30;;;;;;;5.40;2.93;;;2.00;62.60;;;;;;5034708;28;20873;-84
2022/03/12 06:55:57;;;;;;;4.87;2.50;;;2.20;62.30;;;;;;5034321;28;20207;-84
2022/03/12 06:58:25;;;;;;;8.00;2.90;;;2.30;62.00;;;;;;5052433;28;20631;-85
2022/03/12 07:00:51;;;;;;;5.37;2.63;;;2.50;61.40;;;;;;5033195;28;20425;-85
2022/03/12 07:03:17;;;;;;;5.60;2.77;;;2.70;61.20;;;;;;5035286;28;20423;-85
2022/03/12 07:05:42;;;;;;;5.07;2.70;;;2.80;61.50;;;;;;5053140;28;20202;-85
2022/03/12 07:08:08;;;;;;;7.70;3.00;;;3.00;61.10;;;;;;5032659;28;20179;-85
2022/03/12 07:10:33;;;;;;;4.67;2.50;;;3.10;60.70;;;;;;5032480;28;20341;-84
2022/03/12 07:12:59;;;;;;;6.70;2.83;;;3.30;60.70;;;;;;5034850;28;20172;-85
2022/03/12 07:15:25;;;;;;;5.30;2.60;;;3.40;60.20;;;;;;5052441;28;20221;-85
2022/03/12 07:17:51;;;;;;;5.93;2.80;;;3.60;59.60;;;;;;5033870;28;20230;-85
2022/03/12 07:20:18;;;;;;;6.40;2.60;;;3.70;59.40;;;;;;5051295;28;20402;-85
2022/03/12 07:22:45;;;;;;;8.17;3.63;;;3.90;59.10;;;;;;5052179;28;20442;-85
2022/03/12 07:25:12;;;;;;;6.07;2.70;;;4.00;59.20;;;;;;5033239;28;20466;-85
2022/03/12 07:27:39;;;;;;;7.50;2.80;;;4.10;58.20;;;;;;5033959;28;20427;-85
2022/03/12 07:30:06;;;;;;;9.10;4.00;;;4.20;57.90;;;;;;5051420;28;20414;-85
2022/03/12 07:32:31;;;;;;;4.80;2.67;;;4.30;57.70;;;;;;5033443;28;20430;-84
2022/03/12 07:34:57;;;;;;;8.50;2.70;;;4.40;57.80;;;;;;5025052;28;20439;-85
2022/03/12 07:37:23;;;;;;;4.17;2.67;;;4.50;57.40;;;;;;5031203;28;20200;-85
2022/03/12 07:39:48;;;;;;;15.33;3.10;;;4.60;57.80;;;;;;5013751;28;20243;-85
2022/03/12 07:42:14;;;;;;;9.30;2.80;;;4.70;57.80;;;;;;5014463;28;20180;-85
2022/03/12 07:44:39;;;;;;;3.97;2.70;;;4.80;56.90;;;;;;5033482;28;20226;-85
2022/03/12 07:47:06;;;;;;;5.00;2.63;;;4.90;56.70;;;;;;5033591;28;20218;-85
2022/03/12 07:49:32;;;;;;;4.47;2.67;;;5.00;57.10;;;;;;5033000;28;20180;-85
2022/03/12 07:51:58;;;;;;;7.17;2.80;;;5.10;57.00;;;;;;5033599;28;20429;-85
2022/03/12 07:54:23;;;;;;;6.10;3.23;;;5.20;56.40;;;;;;5033366;28;20203;-85
2022/03/12 07:56:49;;;;;;;6.90;2.90;;;5.20;56.00;;;;;;5033269;28;20257;-85
2022/03/12 07:59:15;;;;;;;4.90;2.70;;;5.30;56.50;;;;;;5033205;28;20241;-85
2022/03/12 08:01:43;;;;;;;3.67;2.47;;;5.40;55.80;;;;;;5033020;28;20424;-84
2022/03/12 08:04:08;;;;;;;8.47;3.30;;;5.40;55.90;;;;;;5032950;28;20207;-85
2022/03/12 08:06:34;;;;;;;6.27;3.10;;;5.50;56.30;;;;;;5032904;28;20410;-84
2022/03/12 08:09:00;;;;;;;6.73;3.30;;;5.60;56.10;;;;;;5032812;28;20176;-85
2022/03/12 08:11:29;;;;;;;7.83;3.17;;;5.80;56.70;;;;;;5032572;28;20183;-84
2022/03/12 08:13:59;;;;;;;5.90;3.03;;;5.80;56.20;;;;;;5033945;28;20916;-84
2022/03/12 08:16:25;;;;;;;4.13;2.87;;;6.00;56.30;;;;;;5035443;28;20504;-83
2022/03/12 08:18:50;;;;;;;6.17;3.50;;;6.10;56.10;;;;;;5032573;28;21318;-83
2022/03/12 08:21:16;;;;;;;6.30;3.17;;;6.10;55.10;;;;;;5032623;28;20537;-83
2022/03/12 08:23:42;;;;;;;5.80;3.20;;;6.10;54.90;;;;;;5032092;28;20267;-84
2022/03/12 08:26:08;;;;;;;6.00;3.10;;;6.20;55.90;;;;;;5032491;28;20478;-83
2022/03/12 08:28:34;;;;;;;7.93;3.67;;;6.20;55.30;;;;;;5050636;28;20716;-83
2022/03/12 08:31:02;;;;;;;3.17;2.40;;;6.30;55.50;;;;;;5032661;28;20856;-83
2022/03/12 08:33:28;;;;;;;3.33;2.93;;;6.40;55.10;;;;;;5032509;28;20803;-83
2022/03/12 08:35:53;;;;;;;5.93;3.03;;;6.50;55.00;;;;;;5034174;28;20438;-83
2022/03/12 08:38:19;;;;;;;4.57;3.50;;;6.60;54.60;;;;;;5011810;28;20423;-84
2022/03/12 08:40:46;;;;;;;5.03;2.70;;;6.70;55.10;;;;;;5012782;28;20176;-84
2022/03/12 08:43:13;;;;;;;7.93;2.80;;;6.80;55.40;;;;;;5012310;28;20946;-83
2022/03/12 08:45:38;;;;;;;6.67;3.07;;;6.80;54.40;;;;;;5012471;28;20574;-83
2022/03/12 08:48:04;;;;;;;6.20;2.93;;;6.80;54.50;;;;;;5012349;28;20506;-84
2022/03/12 08:50:30;;;;;;;6.33;3.00;;;6.90;54.30;;;;;;5029910;28;20218;-83
2022/03/12 08:52:57;;;;;;;5.03;3.10;;;7.00;55.40;;;;;;5012106;28;20418;-83
2022/03/12 08:55:23;;;;;;;5.30;3.13;;;7.20;54.70;;;;;;5012020;28;20439;-84
2022/03/12 08:57:49;;;;;;;6.03;3.10;;;7.30;55.30;;;;;;5009051;28;21048;-84
2022/03/12 09:00:18;;;;;;;5.03;3.03;;;7.50;54.40;;;;;;5022386;28;20427;-83
2022/03/12 09:02:44;;;;;;;5.80;3.00;;;7.60;54.70;;;;;;5014374;28;20718;-83
2022/03/12 09:05:12;;;;;;;8.30;3.83;;;7.70;55.00;;;;;;5018281;28;20522;-83
2022/03/12 09:07:38;;;;;;;4.30;2.70;;;7.90;54.70;;;;;;5011257;28;20715;-83
2022/03/12 09:10:10;;;;;;;8.20;3.47;;;7.90;53.30;;;;;;5030408;28;20423;-84
2022/03/12 09:12:36;;;;;;;5.77;3.10;;;7.90;54.30;;;;;;5010279;28;21007;-84
2022/03/12 09:15:02;;;;;;;7.10;4.03;;;8.00;54.10;;;;;;5028583;28;20431;-84
2022/03/12 09:17:28;;;;;;;4.50;2.80;;;8.20;54.40;;;;;;5016708;28;20453;-84
2022/03/12 09:19:54;;;;;;;4.30;2.97;;;8.30;54.30;;;;;;4993227;28;20416;-84
2022/03/12 09:22:19;;;;;;;8.27;3.40;;;8.40;53.80;;;;;;4992455;28;20181;-84
2022/03/12 09:24:45;;;;;;;7.37;3.57;;;8.40;52.90;;;;;;4991970;28;20260;-84
2022/03/12 09:27:10;;;;;;;7.37;3.73;;;8.50;53.70;;;;;;5012321;28;20725;-85
2022/03/12 09:29:38;;;;;;;6.57;3.70;;;8.50;53.70;;;;;;5013229;28;20593;-81
2022/03/12 09:32:05;;;;;;;8.63;3.80;;;8.60;54.10;;;;;;5012578;28;20226;-83
2022/03/12 09:34:31;;;;;;;6.57;3.33;;;8.80;53.60;;;;;;5012382;28;20688;-82
2022/03/12 09:36:57;;;;;;;6.67;3.57;;;8.90;53.90;;;;;;5021272;28;20519;-84
2022/03/12 09:39:23;;;;;;;10.10;4.20;;;8.90;52.80;;;;;;5018716;28;20554;-82
2022/03/12 09:41:49;;;;;;;5.27;3.27;;;9.00;54.00;;;;;;5012213;28;20544;-83
2022/03/12 09:44:16;;;;;;;6.90;3.90;;;9.20;53.70;;;;;;5040225;28;20187;-84
2022/03/12 09:46:44;;;;;;;5.70;3.03;;;9.20;53.60;;;;;;5018095;28;20411;-84
2022/03/12 09:49:11;;;;;;;7.97;3.47;;;9.30;53.90;;;;;;5011054;28;20510;-84
2022/03/12 09:51:37;;;;;;;6.30;3.30;;;9.40;52.00;;;;;;5019251;28;20422;-81
2022/03/12 09:54:03;;;;;;;7.80;3.50;;;9.40;51.50;;;;;;5049216;28;20458;-82
2022/03/12 09:56:29;;;;;;;8.27;4.17;;;9.40;50.90;;;;;;5031691;28;20450;-83
2022/03/12 09:58:55;;;;;;;9.03;3.40;;;9.30;51.40;;;;;;5015245;28;20204;-83
2022/03/12 10:01:21;;;;;;;7.80;3.50;;;9.30;51.00;;;;;;5046941;28;20446;-83
2022/03/12 10:03:46;;;;;;;4.70;2.90;;;9.40;51.00;;;;;;5019768;28;20180;-82
2022/03/12 10:06:13;;;;;;;4.50;3.03;;;9.60;51.30;;;;;;5007682;28;20176;-85
2022/03/12 10:08:39;;;;;;;5.07;3.17;;;9.80;51.20;;;;;;5010636;28;20299;-85
2022/03/12 10:11:05;;;;;;;7.80;3.30;;;9.70;49.10;;;;;;5028985;28;20526;-84
2022/03/12 10:13:31;;;;;;;4.50;3.43;;;9.70;49.90;;;;;;5024384;28;20188;-85
2022/03/12 10:15:58;;;;;;;8.93;3.87;;;9.80;50.50;;;;;;5030748;28;20442;-84
2022/03/12 10:18:24;;;;;;;7.90;3.40;;;10.00;50.50;;;;;;5048369;28;20176;-84
2022/03/12 10:20:53;;;;;;;8.40;3.90;;;10.10;50.20;;;;;;5019885;28;20431;-85
2022/03/12 10:23:19;;;;;;;8.10;4.03;;;10.20;50.70;;;;;;5001811;28;20182;-85
2022/03/12 10:25:45;;;;;;;6.80;3.60;;;10.40;49.60;;;;;;5001862;28;20467;-84
2022/03/12 10:28:12;;;;;;;9.33;3.40;;;10.40;49.90;;;;;;5013611;28;20448;-85
2022/03/12 10:30:38;;;;;;;5.80;3.20;;;10.50;50.60;;;;;;5009169;28;20434;-85
2022/03/12 10:33:07;;;;;;;7.70;4.03;;;10.70;50.80;;;;;;5022333;28;20423;-85
2022/03/12 10:35:38;;;;;;;12.53;2.90;;;10.70;50.90;;;;;;5009775;28;20445;-85
2022/03/12 10:38:11;;;;;;;5.73;3.17;;;10.80;51.10;;;;;;5014661;28;20462;-84
2022/03/12 10:40:37;;;;;;;9.53;3.83;;;10.90;51.60;;;;;;5032326;28;20431;-84
2022/03/12 10:43:05;;;;;;;8.50;3.97;;;11.10;51.20;;;;;;5031820;28;20845;-85
2022/03/12 10:45:39;;;;;;;6.30;3.67;;;11.30;51.50;;;;;;5012207;28;20201;-85
2022/03/12 10:48:05;;;;;;;7.00;3.60;;;11.40;51.00;;;;;;4996263;28;20431;-83
2022/03/12 10:50:45;;;;;;;7.27;3.70;;;11.40;50.00;;;;;;5014759;28;20455;-84
2022/03/12 10:53:12;;;;;;;8.43;3.60;;;11.20;49.30;;;;;;5012873;28;20758;-85
2022/03/12 10:55:43;;;;;;;4.83;3.20;;;11.30;50.50;;;;;;5013160;28;20521;-84
2022/03/12 10:58:19;;;;;;;7.40;3.60;;;11.30;50.30;;;;;;5031529;28;20977;-84
2022/03/12 11:00:51;;;;;;;9.00;3.80;;;11.40;49.80;;;;;;5014193;28;20854;-85
2022/03/12 11:03:20;;;;;;;4.57;3.10;;;11.60;51.20;;;;;;5031863;28;20580;-84
2022/03/12 11:05:47;;;;;;;5.40;3.33;;;11.70;50.70;;;;;;5013659;28;20463;-85
2022/03/12 11:08:22;;;;;;;5.93;3.60;;;11.80;50.60;;;;;;5012286;28;20423;-85
2022/03/12 11:10:54;;;;;;;5.77;3.53;;;11.90;50.30;;;;;;5012517;28;20965;-85
2022/03/12 11:13:27;;;;;;;5.97;3.47;;;12.00;50.60;;;;;;5013072;28;20435;-84
2022/03/12 11:16:20;;;;;;;5.70;3.00;;;12.20;50.80;;;;;;5012807;28;20474;-85
2022/03/12 11:19:07;;;;;;;6.40;3.03;;;12.30;50.20;;;;;;5014081;28;20473;-84
2022/03/12 11:21:43;;;;;;;5.63;3.43;;;12.50;50.70;;;;;;5033000;28;20403;-84
2022/03/12 11:24:15;;;;;;;7.37;4.00;;;12.50;48.80;;;;;;5013831;28;20453;-84
2022/03/12 11:26:56;;;;;;;7.67;3.40;;;12.70;49.90;;;;;;5031743;28;20426;-85
2022/03/12 11:29:25;;;;;;;5.27;3.53;;;12.70;49.80;;;;;;5031641;28;20697;-85
2022/03/12 11:31:59;;;;;;;6.17;3.93;;;12.70;49.60;;;;;;5014914;28;20561;-84
2022/03/12 11:34:34;;;;;;;7.60;4.00;;;12.70;50.50;;;;;;5013415;28;20452;-85
2022/03/12 11:37:04;;;;;;;5.57;3.60;;;12.80;50.00;;;;;;5013249;28;20466;-85
2022/03/12 11:39:32;;;;;;;4.20;2.83;;;12.80;49.60;;;;;;5013257;28;20925;-84
2022/03/12 11:42:06;;;;;;;6.00;3.70;;;12.90;49.90;;;;;;5013574;28;20426;-85
2022/03/12 11:44:35;;;;;;;5.80;3.70;;;13.00;48.90;;;;;;5031452;28;20435;-85
2022/03/12 11:47:01;;;;;;;6.00;3.40;;;12.90;49.60;;;;;;5012440;28;20423;-85
2022/03/12 11:49:27;;;;;;;5.43;3.40;;;13.00;49.80;;;;;;5029236;28;20418;-85
2022/03/12 11:51:53;;;;;;;5.17;3.43;;;13.10;50.50;;;;;;5010434;28;20419;-84
2022/03/12 11:54:19;;;;;;;5.43;3.30;;;13.20;49.70;;;;;;5028505;28;20231;-84
2022/03/12 11:56:45;;;;;;;5.70;3.03;;;13.30;48.90;;;;;;5010319;28;20505;-85
2022/03/12 11:59:10;;;;;;;5.13;3.13;;;13.30;49.30;;;;;;5009567;28;20423;-84
2022/03/12 12:01:37;;;;;;;6.90;3.77;;;13.50;47.90;;;;;;5010046;28;20175;-85
2022/03/12 12:04:04;;;;;;;6.77;3.80;;;13.60;49.70;;;;;;5012066;28;20204;-85
2022/03/12 12:06:29;;;;;;;8.87;4.27;;;13.80;49.70;;;;;;5013523;28;20423;-85
2022/03/12 12:08:58;;;;;;;5.83;3.37;;;13.90;49.70;;;;;;5013194;28;20484;-85
2022/03/12 12:11:23;;;;;;;8.00;3.40;;;14.00;49.40;;;;;;5012942;28;20177;-85
2022/03/12 12:13:50;;;;;;;7.70;3.80;;;14.10;48.90;;;;;;5013043;28;20415;-85
2022/03/12 12:16:18;;;;;;;6.87;3.40;;;14.00;47.70;;;;;;5013072;28;20262;-85
2022/03/12 12:18:44;;;;;;;5.00;3.40;;;13.90;48.30;;;;;;5012981;28;20426;-84
2022/03/12 12:21:17;;;;;;;9.00;3.97;;;14.00;48.10;;;;;;5012242;28;20423;-85
2022/03/12 12:23:43;;;;;;;9.93;3.63;;;14.00;48.70;;;;;;5012710;28;20934;-83
2022/03/12 12:26:10;;;;;;;5.60;3.43;;;14.30;49.70;;;;;;5012644;28;20467;-85
2022/03/12 12:28:53;;;;;;;11.70;3.67;;;14.50;49.00;;;;;;5012867;28;20631;-85
2022/03/12 12:31:26;;;;;;;8.13;4.00;;;14.70;48.20;;;;;;5012905;28;20775;-84
2022/03/12 12:33:56;;;;;;;7.70;3.70;;;14.70;48.90;;;;;;5013634;28;20426;-84
2022/03/12 12:36:22;;;;;;;4.43;3.07;;;14.90;48.10;;;;;;5012156;28;20627;-85
2022/03/12 12:39:07;;;;;;;5.47;3.27;;;15.00;48.40;;;;;;5012633;28;20419;-85
2022/03/12 12:42:05;;;;;;;7.20;3.90;;;15.20;48.90;;;;;;5012614;28;20276;-85
2022/03/12 12:44:44;;;;;;;5.87;3.83;;;15.00;47.70;;;;;;5011943;28;20518;-85
2022/03/12 12:47:18;;;;;;;4.80;3.40;;;14.90;48.10;;;;;;5030126;28;21078;-85
2022/03/12 12:49:55;;;;;;;6.00;3.90;;;15.00;48.40;;;;;;5012509;28;20639;-85
2022/03/12 12:52:21;;;;;;;6.17;4.60;;;15.20;48.50;;;;;;5027702;28;20766;-84
2022/03/12 12:54:46;;;;;;;9.50;3.70;;;15.20;48.50;;;;;;5031873;28;20430;-85
2022/03/12 12:57:13;;;;;;;6.00;3.40;;;15.30;48.30;;;;;;5032457;28;20470;-85